sensor_id;sensor_type;location;lat;lon;timestamp;P1;durP1;ratioP1;P2;durP2;ratioP2
70049;SDS011;57391;51.306;22.680;2022-10-17T00:01:03;15.90;;;7.50;;
70049;SDS011;57391;51.306;22.680;2022-10-17T00:03:34;13.00;;;7.30;;
70049;SDS011;57391;51.306;22.680;2022-10-17T00:06:07;13.00;;;7.70;;
70049;SDS011;57391;51.306;22.680;2022-10-17T00:08:39;12.00;;;7.20;;
70049;SDS011;57391;51.306;22.680;2022-10-17T00:11:15;12.90;;;7.40;;
70049;SDS011;57391;51.306;22.680;2022-10-17T00:13:49;12.40;;;7.50;;
70049;SDS011;57391;51.306;22.680;2022-10-17T00:16:27;11.40;;;7.80;;
70049;SDS011;57391;51.306;22.680;2022-10-17T00:18:56;11.80;;;8.10;;
70049;SDS011;57391;51.306;22.680;2022-10-17T00:21:24;12.30;;;7.70;;
70049;SDS011;57391;51.306;22.680;2022-10-17T00:23:58;12.20;;;7.20;;
70049;SDS011;57391;51.306;22.680;2022-10-17T00:26:26;12.40;;;7.30;;
70049;SDS011;57391;51.306;22.680;2022-10-17T00:28:55;13.90;;;7.20;;
70049;SDS011;57391;51.306;22.680;2022-10-17T00:31:23;14.10;;;7.60;;
70049;SDS011;57391;51.306;22.680;2022-10-17T00:33:51;12.40;;;7.10;;
70049;SDS011;57391;51.306;22.680;2022-10-17T00:36:24;13.10;;;7.20;;
70049;SDS011;57391;51.306;22.680;2022-10-17T00:38:56;13.40;;;7.30;;
70049;SDS011;57391;51.306;22.680;2022-10-17T00:41:30;12.20;;;7.30;;
70049;SDS011;57391;51.306;22.680;2022-10-17T00:44:56;13.10;;;7.60;;
70049;SDS011;57391;51.306;22.680;2022-10-17T00:46:58;12.60;;;7.40;;
70049;SDS011;57391;51.306;22.680;2022-10-17T00:49:32;13.50;;;8.10;;
70049;SDS011;57391;51.306;22.680;2022-10-17T00:52:06;12.40;;;7.90;;
70049;SDS011;57391;51.306;22.680;2022-10-17T00:54:42;12.70;;;7.10;;
70049;SDS011;57391;51.306;22.680;2022-10-17T00:57:14;11.60;;;7.30;;
70049;SDS011;57391;51.306;22.680;2022-10-17T00:59:46;14.20;;;7.30;;
70049;SDS011;57391;51.306;22.680;2022-10-17T01:05:54;11.50;;;7.10;;
70049;SDS011;57391;51.306;22.680;2022-10-17T01:08:21;12.10;;;7.40;;
70049;SDS011;57391;51.306;22.680;2022-10-17T01:11:44;14.50;;;7.10;;
70049;SDS011;57391;51.306;22.680;2022-10-17T01:14:30;12.50;;;7.80;;
70049;SDS011;57391;51.306;22.680;2022-10-17T01:20:33;13.00;;;8.00;;
70049;SDS011;57391;51.306;22.680;2022-10-17T01:32:17;13.00;;;7.70;;
70049;SDS011;57391;51.306;22.680;2022-10-17T01:34:57;13.70;;;7.50;;
70049;SDS011;57391;51.306;22.680;2022-10-17T01:37:46;13.90;;;7.50;;
70049;SDS011;57391;51.306;22.680;2022-10-17T01:40:23;20.20;;;8.10;;
70049;SDS011;57391;51.306;22.680;2022-10-17T01:46:01;11.30;;;6.80;;
70049;SDS011;57391;51.306;22.680;2022-10-17T01:48:36;13.70;;;7.70;;
70049;SDS011;57391;51.306;22.680;2022-10-17T01:51:10;12.30;;;6.70;;
70049;SDS011;57391;51.306;22.680;2022-10-17T01:53:53;12.30;;;7.80;;
70049;SDS011;57391;51.306;22.680;2022-10-17T01:56:28;12.00;;;7.20;;
70049;SDS011;57391;51.306;22.680;2022-10-17T01:59:03;11.90;;;7.00;;
70049;SDS011;57391;51.306;22.680;2022-10-17T02:01:36;11.80;;;7.30;;
70049;SDS011;57391;51.306;22.680;2022-10-17T02:04:07;12.40;;;7.00;;
70049;SDS011;57391;51.306;22.680;2022-10-17T02:06:36;12.60;;;7.70;;
70049;SDS011;57391;51.306;22.680;2022-10-17T02:09:24;13.10;;;7.50;;
70049;SDS011;57391;51.306;22.680;2022-10-17T02:25:17;15.30;;;7.20;;
70049;SDS011;57391;51.306;22.680;2022-10-17T02:30:43;13.30;;;8.30;;
70049;SDS011;57391;51.306;22.680;2022-10-17T02:33:22;13.60;;;8.00;;
70049;SDS011;57391;51.306;22.680;2022-10-17T02:35:59;12.70;;;7.70;;
70049;SDS011;57391;51.306;22.680;2022-10-17T02:38:31;13.10;;;7.90;;
70049;SDS011;57391;51.306;22.680;2022-10-17T02:41:01;15.40;;;7.80;;
70049;SDS011;57391;51.306;22.680;2022-10-17T02:43:30;13.00;;;7.60;;
70049;SDS011;57391;51.306;22.680;2022-10-17T02:45:58;12.50;;;7.90;;
70049;SDS011;57391;51.306;22.680;2022-10-17T02:48:37;12.90;;;8.40;;
70049;SDS011;57391;51.306;22.680;2022-10-17T02:54:09;12.50;;;7.80;;
70049;SDS011;57391;51.306;22.680;2022-10-17T02:56:54;12.20;;;7.40;;
70049;SDS011;57391;51.306;22.680;2022-10-17T02:59:27;15.40;;;8.20;;
70049;SDS011;57391;51.306;22.680;2022-10-17T03:02:02;15.30;;;7.80;;
70049;SDS011;57391;51.306;22.680;2022-10-17T03:04:31;14.50;;;8.60;;
70049;SDS011;57391;51.306;22.680;2022-10-17T03:06:59;11.30;;;7.60;;
70049;SDS011;57391;51.306;22.680;2022-10-17T03:09:26;14.20;;;8.80;;
70049;SDS011;57391;51.306;22.680;2022-10-17T03:11:53;16.30;;;7.70;;
70049;SDS011;57391;51.306;22.680;2022-10-17T03:14:20;13.90;;;8.20;;
70049;SDS011;57391;51.306;22.680;2022-10-17T03:16:48;14.20;;;7.20;;
70049;SDS011;57391;51.306;22.680;2022-10-17T03:19:15;12.40;;;8.10;;
70049;SDS011;57391;51.306;22.680;2022-10-17T03:21:43;15.80;;;8.20;;
70049;SDS011;57391;51.306;22.680;2022-10-17T03:24:11;14.90;;;7.60;;
70049;SDS011;57391;51.306;22.680;2022-10-17T03:26:39;13.80;;;8.00;;
70049;SDS011;57391;51.306;22.680;2022-10-17T03:29:06;14.80;;;7.80;;
70049;SDS011;57391;51.306;22.680;2022-10-17T03:31:34;14.40;;;7.80;;
70049;SDS011;57391;51.306;22.680;2022-10-17T03:34:02;13.30;;;8.10;;
70049;SDS011;57391;51.306;22.680;2022-10-17T03:36:30;11.50;;;8.00;;
70049;SDS011;57391;51.306;22.680;2022-10-17T03:38:57;13.00;;;7.60;;
70049;SDS011;57391;51.306;22.680;2022-10-17T03:41:24;12.80;;;7.60;;
70049;SDS011;57391;51.306;22.680;2022-10-17T03:43:52;12.40;;;7.70;;
70049;SDS011;57391;51.306;22.680;2022-10-17T03:46:20;12.90;;;7.10;;
70049;SDS011;57391;51.306;22.680;2022-10-17T03:48:47;12.50;;;7.30;;
70049;SDS011;57391;51.306;22.680;2022-10-17T03:51:16;14.30;;;8.40;;
70049;SDS011;57391;51.306;22.680;2022-10-17T03:53:46;13.20;;;8.50;;
70049;SDS011;57391;51.306;22.680;2022-10-17T03:56:18;12.70;;;8.30;;
70049;SDS011;57391;51.306;22.680;2022-10-17T03:58:57;17.30;;;8.90;;
70049;SDS011;57391;51.306;22.680;2022-10-17T04:01:24;17.40;;;8.40;;
70049;SDS011;57391;51.306;22.680;2022-10-17T04:03:53;14.90;;;8.20;;
70049;SDS011;57391;51.306;22.680;2022-10-17T04:06:22;14.00;;;7.50;;
70049;SDS011;57391;51.306;22.680;2022-10-17T04:08:50;16.40;;;8.80;;
70049;SDS011;57391;51.306;22.680;2022-10-17T04:11:52;17.50;;;9.00;;
70049;SDS011;57391;51.306;22.680;2022-10-17T04:14:19;16.20;;;8.50;;
70049;SDS011;57391;51.306;22.680;2022-10-17T04:16:47;13.00;;;7.90;;
70049;SDS011;57391;51.306;22.680;2022-10-17T04:19:18;14.60;;;7.90;;
70049;SDS011;57391;51.306;22.680;2022-10-17T04:21:46;12.70;;;7.50;;
70049;SDS011;57391;51.306;22.680;2022-10-17T04:24:14;13.30;;;8.00;;
70049;SDS011;57391;51.306;22.680;2022-10-17T04:26:50;12.00;;;7.60;;
70049;SDS011;57391;51.306;22.680;2022-10-17T04:29:18;14.50;;;8.30;;
70049;SDS011;57391;51.306;22.680;2022-10-17T04:31:46;14.00;;;7.80;;
70049;SDS011;57391;51.306;22.680;2022-10-17T04:34:29;14.60;;;8.40;;
70049;SDS011;57391;51.306;22.680;2022-10-17T04:36:58;12.00;;;7.60;;
70049;SDS011;57391;51.306;22.680;2022-10-17T04:39:26;15.40;;;8.30;;
70049;SDS011;57391;51.306;22.680;2022-10-17T04:41:54;15.70;;;8.00;;
70049;SDS011;57391;51.306;22.680;2022-10-17T04:44:22;14.40;;;8.70;;
70049;SDS011;57391;51.306;22.680;2022-10-17T04:46:51;13.50;;;7.80;;
70049;SDS011;57391;51.306;22.680;2022-10-17T04:49:19;13.60;;;8.20;;
70049;SDS011;57391;51.306;22.680;2022-10-17T04:51:48;16.60;;;8.30;;
70049;SDS011;57391;51.306;22.680;2022-10-17T04:54:25;13.80;;;8.00;;
70049;SDS011;57391;51.306;22.680;2022-10-17T04:56:57;15.60;;;8.60;;
70049;SDS011;57391;51.306;22.680;2022-10-17T04:59:25;13.10;;;7.50;;
70049;SDS011;57391;51.306;22.680;2022-10-17T05:02:03;13.40;;;8.30;;
70049;SDS011;57391;51.306;22.680;2022-10-17T05:04:31;15.00;;;8.70;;
70049;SDS011;57391;51.306;22.680;2022-10-17T05:07:00;13.90;;;7.70;;
70049;SDS011;57391;51.306;22.680;2022-10-17T05:09:52;15.20;;;8.10;;
70049;SDS011;57391;51.306;22.680;2022-10-17T05:12:19;14.20;;;8.30;;
70049;SDS011;57391;51.306;22.680;2022-10-17T05:14:47;14.70;;;9.10;;
70049;SDS011;57391;51.306;22.680;2022-10-17T05:17:14;17.10;;;8.80;;
70049;SDS011;57391;51.306;22.680;2022-10-17T05:19:42;15.60;;;8.10;;
70049;SDS011;57391;51.306;22.680;2022-10-17T05:22:09;14.10;;;8.30;;
70049;SDS011;57391;51.306;22.680;2022-10-17T05:24:36;12.60;;;7.70;;
70049;SDS011;57391;51.306;22.680;2022-10-17T05:27:03;13.30;;;7.90;;
70049;SDS011;57391;51.306;22.680;2022-10-17T05:29:31;14.80;;;8.70;;
70049;SDS011;57391;51.306;22.680;2022-10-17T05:32:05;14.90;;;8.50;;
70049;SDS011;57391;51.306;22.680;2022-10-17T05:34:33;16.10;;;8.30;;
70049;SDS011;57391;51.306;22.680;2022-10-17T05:37:01;14.90;;;8.50;;
70049;SDS011;57391;51.306;22.680;2022-10-17T05:39:28;16.90;;;9.00;;
70049;SDS011;57391;51.306;22.680;2022-10-17T05:41:56;14.30;;;8.80;;
70049;SDS011;57391;51.306;22.680;2022-10-17T05:44:23;14.80;;;8.40;;
70049;SDS011;57391;51.306;22.680;2022-10-17T05:46:53;18.40;;;8.80;;
70049;SDS011;57391;51.306;22.680;2022-10-17T05:49:21;15.60;;;9.20;;
70049;SDS011;57391;51.306;22.680;2022-10-17T05:51:49;17.40;;;9.50;;
70049;SDS011;57391;51.306;22.680;2022-10-17T05:54:16;16.90;;;9.70;;
70049;SDS011;57391;51.306;22.680;2022-10-17T05:56:50;15.20;;;9.10;;
70049;SDS011;57391;51.306;22.680;2022-10-17T05:59:27;14.90;;;9.30;;
70049;SDS011;57391;51.306;22.680;2022-10-17T06:02:03;16.50;;;9.30;;
70049;SDS011;57391;51.306;22.680;2022-10-17T06:04:31;16.00;;;8.70;;
70049;SDS011;57391;51.306;22.680;2022-10-17T06:07:11;15.30;;;9.50;;
70049;SDS011;57391;51.306;22.680;2022-10-17T06:09:41;15.40;;;9.10;;
70049;SDS011;57391;51.306;22.680;2022-10-17T06:12:09;18.40;;;9.80;;
70049;SDS011;57391;51.306;22.680;2022-10-17T06:14:36;14.60;;;8.70;;
70049;SDS011;57391;51.306;22.680;2022-10-17T06:17:03;15.80;;;9.20;;
70049;SDS011;57391;51.306;22.680;2022-10-17T06:19:31;16.60;;;9.60;;
70049;SDS011;57391;51.306;22.680;2022-10-17T06:21:58;17.10;;;9.30;;
70049;SDS011;57391;51.306;22.680;2022-10-17T06:24:26;16.00;;;8.40;;
70049;SDS011;57391;51.306;22.680;2022-10-17T06:26:54;15.00;;;8.60;;
70049;SDS011;57391;51.306;22.680;2022-10-17T06:29:22;16.00;;;9.30;;
70049;SDS011;57391;51.306;22.680;2022-10-17T06:31:51;13.60;;;8.70;;
70049;SDS011;57391;51.306;22.680;2022-10-17T06:34:20;13.60;;;7.90;;
70049;SDS011;57391;51.306;22.680;2022-10-17T06:36:47;13.90;;;8.30;;
70049;SDS011;57391;51.306;22.680;2022-10-17T06:39:15;12.80;;;9.10;;
70049;SDS011;57391;51.306;22.680;2022-10-17T06:41:48;13.80;;;7.90;;
70049;SDS011;57391;51.306;22.680;2022-10-17T06:44:18;14.40;;;7.60;;
70049;SDS011;57391;51.306;22.680;2022-10-17T06:47:08;14.20;;;8.30;;
70049;SDS011;57391;51.306;22.680;2022-10-17T06:49:36;10.90;;;7.20;;
70049;SDS011;57391;51.306;22.680;2022-10-17T06:52:18;13.40;;;7.50;;
70049;SDS011;57391;51.306;22.680;2022-10-17T06:55:06;12.00;;;7.60;;
70049;SDS011;57391;51.306;22.680;2022-10-17T06:57:41;10.10;;;6.90;;
70049;SDS011;57391;51.306;22.680;2022-10-17T07:00:28;10.50;;;6.80;;
70049;SDS011;57391;51.306;22.680;2022-10-17T07:02:57;11.50;;;7.10;;
70049;SDS011;57391;51.306;22.680;2022-10-17T07:05:24;12.20;;;7.90;;
70049;SDS011;57391;51.306;22.680;2022-10-17T07:07:51;12.40;;;7.70;;
70049;SDS011;57391;51.306;22.680;2022-10-17T07:10:19;11.80;;;7.40;;
70049;SDS011;57391;51.306;22.680;2022-10-17T07:12:46;11.40;;;7.30;;
70049;SDS011;57391;51.306;22.680;2022-10-17T07:15:13;14.50;;;7.80;;
70049;SDS011;57391;51.306;22.680;2022-10-17T07:17:40;12.80;;;8.30;;
70049;SDS011;57391;51.306;22.680;2022-10-17T07:20:08;12.70;;;7.90;;
70049;SDS011;57391;51.306;22.680;2022-10-17T07:22:37;12.40;;;7.90;;
70049;SDS011;57391;51.306;22.680;2022-10-17T07:25:05;12.80;;;7.60;;
70049;SDS011;57391;51.306;22.680;2022-10-17T07:27:37;11.80;;;7.40;;
70049;SDS011;57391;51.306;22.680;2022-10-17T07:30:06;12.40;;;7.90;;
70049;SDS011;57391;51.306;22.680;2022-10-17T07:32:47;13.70;;;7.90;;
70049;SDS011;57391;51.306;22.680;2022-10-17T07:35:15;12.70;;;7.10;;
70049;SDS011;57391;51.306;22.680;2022-10-17T07:37:41;12.00;;;7.70;;
70049;SDS011;57391;51.306;22.680;2022-10-17T07:40:09;11.30;;;7.50;;
70049;SDS011;57391;51.306;22.680;2022-10-17T07:42:37;12.60;;;7.70;;
70049;SDS011;57391;51.306;22.680;2022-10-17T07:45:05;14.00;;;7.60;;
70049;SDS011;57391;51.306;22.680;2022-10-17T07:47:33;12.00;;;7.60;;
70049;SDS011;57391;51.306;22.680;2022-10-17T07:50:06;11.50;;;7.20;;
70049;SDS011;57391;51.306;22.680;2022-10-17T07:52:34;13.10;;;8.20;;
70049;SDS011;57391;51.306;22.680;2022-10-17T07:55:01;12.50;;;8.00;;
70049;SDS011;57391;51.306;22.680;2022-10-17T07:57:28;15.40;;;8.00;;
70049;SDS011;57391;51.306;22.680;2022-10-17T07:59:55;75.70;;;36.70;;
70049;SDS011;57391;51.306;22.680;2022-10-17T08:02:24;37.90;;;21.20;;
70049;SDS011;57391;51.306;22.680;2022-10-17T08:04:53;23.20;;;16.00;;
70049;SDS011;57391;51.306;22.680;2022-10-17T08:07:20;39.70;;;26.20;;
70049;SDS011;57391;51.306;22.680;2022-10-17T08:09:49;23.00;;;14.70;;
70049;SDS011;57391;51.306;22.680;2022-10-17T08:12:16;18.80;;;11.50;;
70049;SDS011;57391;51.306;22.680;2022-10-17T08:14:43;13.10;;;8.80;;
70049;SDS011;57391;51.306;22.680;2022-10-17T08:17:10;13.70;;;8.20;;
70049;SDS011;57391;51.306;22.680;2022-10-17T08:19:39;11.00;;;7.70;;
70049;SDS011;57391;51.306;22.680;2022-10-17T08:22:06;12.10;;;8.00;;
70049;SDS011;57391;51.306;22.680;2022-10-17T08:24:34;11.90;;;8.20;;
70049;SDS011;57391;51.306;22.680;2022-10-17T08:27:02;13.40;;;7.90;;
70049;SDS011;57391;51.306;22.680;2022-10-17T08:29:34;14.10;;;8.80;;
70049;SDS011;57391;51.306;22.680;2022-10-17T08:32:01;18.80;;;10.80;;
70049;SDS011;57391;51.306;22.680;2022-10-17T08:34:28;17.10;;;10.20;;
70049;SDS011;57391;51.306;22.680;2022-10-17T08:36:55;15.00;;;8.50;;
70049;SDS011;57391;51.306;22.680;2022-10-17T08:39:22;13.90;;;8.50;;
70049;SDS011;57391;51.306;22.680;2022-10-17T08:47:40;11.90;;;7.90;;
70049;SDS011;57391;51.306;22.680;2022-10-17T08:50:40;11.20;;;7.80;;
70049;SDS011;57391;51.306;22.680;2022-10-17T08:55:52;11.70;;;8.10;;
70049;SDS011;57391;51.306;22.680;2022-10-17T08:58:22;11.50;;;7.90;;
70049;SDS011;57391;51.306;22.680;2022-10-17T09:01:02;12.60;;;8.00;;
70049;SDS011;57391;51.306;22.680;2022-10-17T09:06:34;12.90;;;8.60;;
70049;SDS011;57391;51.306;22.680;2022-10-17T09:17:54;14.10;;;8.40;;
70049;SDS011;57391;51.306;22.680;2022-10-17T09:20:31;14.60;;;8.30;;
70049;SDS011;57391;51.306;22.680;2022-10-17T09:23:10;12.20;;;8.10;;
70049;SDS011;57391;51.306;22.680;2022-10-17T09:25:44;13.00;;;8.10;;
70049;SDS011;57391;51.306;22.680;2022-10-17T09:34:00;15.00;;;8.00;;
70049;SDS011;57391;51.306;22.680;2022-10-17T09:36:31;13.50;;;7.40;;
70049;SDS011;57391;51.306;22.680;2022-10-17T09:39:03;15.10;;;8.40;;
70049;SDS011;57391;51.306;22.680;2022-10-17T09:41:42;11.50;;;7.70;;
70049;SDS011;57391;51.306;22.680;2022-10-17T09:44:36;11.70;;;7.90;;
70049;SDS011;57391;51.306;22.680;2022-10-17T09:47:33;15.50;;;8.00;;
70049;SDS011;57391;51.306;22.680;2022-10-17T09:50:14;13.00;;;8.00;;
70049;SDS011;57391;51.306;22.680;2022-10-17T09:52:48;12.70;;;8.00;;
70049;SDS011;57391;51.306;22.680;2022-10-17T09:55:21;14.40;;;8.20;;
70049;SDS011;57391;51.306;22.680;2022-10-17T09:58:13;13.90;;;7.90;;
70049;SDS011;57391;51.306;22.680;2022-10-17T10:00:43;13.30;;;8.50;;
70049;SDS011;57391;51.306;22.680;2022-10-17T10:03:20;21.60;;;11.60;;
70049;SDS011;57391;51.306;22.680;2022-10-17T10:06:16;14.20;;;8.70;;
70049;SDS011;57391;51.306;22.680;2022-10-17T10:08:53;13.90;;;8.30;;
70049;SDS011;57391;51.306;22.680;2022-10-17T10:14:32;13.00;;;8.50;;
70049;SDS011;57391;51.306;22.680;2022-10-17T10:17:02;14.20;;;7.80;;
70049;SDS011;57391;51.306;22.680;2022-10-17T10:19:50;14.40;;;8.50;;
70049;SDS011;57391;51.306;22.680;2022-10-17T10:22:20;16.20;;;8.40;;
70049;SDS011;57391;51.306;22.680;2022-10-17T10:27:43;12.20;;;8.10;;
70049;SDS011;57391;51.306;22.680;2022-10-17T10:30:17;13.00;;;8.00;;
70049;SDS011;57391;51.306;22.680;2022-10-17T10:32:48;20.00;;;9.30;;
70049;SDS011;57391;51.306;22.680;2022-10-17T10:35:35;15.10;;;8.30;;
70049;SDS011;57391;51.306;22.680;2022-10-17T10:38:09;12.60;;;8.00;;
70049;SDS011;57391;51.306;22.680;2022-10-17T10:40:51;12.20;;;8.00;;
70049;SDS011;57391;51.306;22.680;2022-10-17T10:43:44;12.20;;;7.90;;
70049;SDS011;57391;51.306;22.680;2022-10-17T10:49:01;18.50;;;10.10;;
70049;SDS011;57391;51.306;22.680;2022-10-17T10:51:47;11.70;;;8.20;;
70049;SDS011;57391;51.306;22.680;2022-10-17T10:54:21;15.60;;;8.50;;
70049;SDS011;57391;51.306;22.680;2022-10-17T10:56:53;14.10;;;8.80;;
70049;SDS011;57391;51.306;22.680;2022-10-17T10:59:44;14.90;;;8.40;;
70049;SDS011;57391;51.306;22.680;2022-10-17T11:02:50;12.40;;;8.10;;
70049;SDS011;57391;51.306;22.680;2022-10-17T11:08:14;12.10;;;8.00;;
70049;SDS011;57391;51.306;22.680;2022-10-17T11:13:20;12.90;;;7.90;;
70049;SDS011;57391;51.306;22.680;2022-10-17T11:19:08;12.90;;;8.40;;
70049;SDS011;57391;51.306;22.680;2022-10-17T11:22:08;14.30;;;7.40;;
70049;SDS011;57391;51.306;22.680;2022-10-17T11:27:43;15.10;;;8.50;;
70049;SDS011;57391;51.306;22.680;2022-10-17T11:30:14;13.20;;;8.50;;
70049;SDS011;57391;51.306;22.680;2022-10-17T11:32:50;12.80;;;8.50;;
70049;SDS011;57391;51.306;22.680;2022-10-17T11:35:29;14.70;;;7.80;;
70049;SDS011;57391;51.306;22.680;2022-10-17T11:40:40;14.10;;;8.30;;
70049;SDS011;57391;51.306;22.680;2022-10-17T11:43:30;15.90;;;8.60;;
70049;SDS011;57391;51.306;22.680;2022-10-17T11:46:09;14.60;;;8.60;;
70049;SDS011;57391;51.306;22.680;2022-10-17T11:49:04;13.40;;;8.00;;
70049;SDS011;57391;51.306;22.680;2022-10-17T11:52:03;13.10;;;7.20;;
70049;SDS011;57391;51.306;22.680;2022-10-17T11:54:50;13.20;;;7.80;;
70049;SDS011;57391;51.306;22.680;2022-10-17T11:57:44;13.10;;;8.00;;
70049;SDS011;57391;51.306;22.680;2022-10-17T12:00:47;11.80;;;7.40;;
70049;SDS011;57391;51.306;22.680;2022-10-17T12:03:33;13.10;;;8.10;;
70049;SDS011;57391;51.306;22.680;2022-10-17T12:09:25;11.40;;;7.30;;
70049;SDS011;57391;51.306;22.680;2022-10-17T12:12:03;13.90;;;8.10;;
70049;SDS011;57391;51.306;22.680;2022-10-17T12:17:33;17.10;;;10.20;;
70049;SDS011;57391;51.306;22.680;2022-10-17T12:20:24;37.00;;;18.20;;
70049;SDS011;57391;51.306;22.680;2022-10-17T12:25:57;16.20;;;9.60;;
70049;SDS011;57391;51.306;22.680;2022-10-17T12:31:20;13.90;;;8.50;;
70049;SDS011;57391;51.306;22.680;2022-10-17T12:34:02;12.20;;;7.60;;
70049;SDS011;57391;51.306;22.680;2022-10-17T12:49:46;14.50;;;9.40;;
70049;SDS011;57391;51.306;22.680;2022-10-17T12:57:37;15.00;;;8.30;;
70049;SDS011;57391;51.306;22.680;2022-10-17T13:00:49;11.60;;;7.90;;
70049;SDS011;57391;51.306;22.680;2022-10-17T13:03:23;46.50;;;24.30;;
70049;SDS011;57391;51.306;22.680;2022-10-17T13:06:05;41.00;;;21.30;;
70049;SDS011;57391;51.306;22.680;2022-10-17T13:08:37;18.70;;;11.10;;
70049;SDS011;57391;51.306;22.680;2022-10-17T13:11:10;15.00;;;9.10;;
70049;SDS011;57391;51.306;22.680;2022-10-17T13:14:12;15.10;;;8.40;;
70049;SDS011;57391;51.306;22.680;2022-10-17T13:16:55;11.20;;;8.00;;
70049;SDS011;57391;51.306;22.680;2022-10-17T13:19:29;10.90;;;7.80;;
70049;SDS011;57391;51.306;22.680;2022-10-17T13:22:22;14.70;;;8.30;;
70049;SDS011;57391;51.306;22.680;2022-10-17T13:25:03;12.30;;;7.70;;
70049;SDS011;57391;51.306;22.680;2022-10-17T13:27:34;12.70;;;8.00;;
70049;SDS011;57391;51.306;22.680;2022-10-17T13:30:27;12.00;;;7.90;;
70049;SDS011;57391;51.306;22.680;2022-10-17T13:33:00;12.10;;;8.10;;
70049;SDS011;57391;51.306;22.680;2022-10-17T13:35:32;12.50;;;8.00;;
70049;SDS011;57391;51.306;22.680;2022-10-17T13:38:03;13.90;;;8.20;;
70049;SDS011;57391;51.306;22.680;2022-10-17T13:40:39;16.00;;;8.70;;
70049;SDS011;57391;51.306;22.680;2022-10-17T13:43:29;14.90;;;8.40;;
70049;SDS011;57391;51.306;22.680;2022-10-17T13:46:00;13.70;;;8.40;;
70049;SDS011;57391;51.306;22.680;2022-10-17T13:48:34;14.00;;;7.70;;
70049;SDS011;57391;51.306;22.680;2022-10-17T13:51:04;16.30;;;9.20;;
70049;SDS011;57391;51.306;22.680;2022-10-17T13:53:33;17.80;;;9.70;;
70049;SDS011;57391;51.306;22.680;2022-10-17T13:56:18;15.10;;;9.90;;
70049;SDS011;57391;51.306;22.680;2022-10-17T13:58:58;15.50;;;9.00;;
70049;SDS011;57391;51.306;22.680;2022-10-17T14:01:30;14.10;;;9.00;;
70049;SDS011;57391;51.306;22.680;2022-10-17T14:03:58;16.00;;;9.80;;
70049;SDS011;57391;51.306;22.680;2022-10-17T14:06:27;14.60;;;9.20;;
70049;SDS011;57391;51.306;22.680;2022-10-17T14:09:03;13.70;;;8.70;;
70049;SDS011;57391;51.306;22.680;2022-10-17T14:11:38;16.50;;;10.20;;
70049;SDS011;57391;51.306;22.680;2022-10-17T14:14:19;17.30;;;9.70;;
70049;SDS011;57391;51.306;22.680;2022-10-17T14:16:48;13.90;;;9.00;;
70049;SDS011;57391;51.306;22.680;2022-10-17T14:19:26;17.30;;;8.50;;
70049;SDS011;57391;51.306;22.680;2022-10-17T14:22:33;13.80;;;9.20;;
70049;SDS011;57391;51.306;22.680;2022-10-17T14:25:03;14.30;;;8.90;;
70049;SDS011;57391;51.306;22.680;2022-10-17T14:27:33;16.10;;;10.00;;
70049;SDS011;57391;51.306;22.680;2022-10-17T14:30:31;16.30;;;10.30;;
70049;SDS011;57391;51.306;22.680;2022-10-17T14:33:05;55.80;;;24.20;;
70049;SDS011;57391;51.306;22.680;2022-10-17T14:35:34;118.80;;;49.60;;
70049;SDS011;57391;51.306;22.680;2022-10-17T14:38:04;122.40;;;54.10;;
70049;SDS011;57391;51.306;22.680;2022-10-17T14:40:34;95.60;;;42.60;;
70049;SDS011;57391;51.306;22.680;2022-10-17T14:43:04;89.60;;;41.10;;
70049;SDS011;57391;51.306;22.680;2022-10-17T14:45:34;53.50;;;25.60;;
70049;SDS011;57391;51.306;22.680;2022-10-17T14:48:15;31.90;;;17.60;;
70049;SDS011;57391;51.306;22.680;2022-10-17T14:51:18;21.90;;;13.40;;
70049;SDS011;57391;51.306;22.680;2022-10-17T14:56:51;18.90;;;11.30;;
70049;SDS011;57391;51.306;22.680;2022-10-17T14:59:23;20.40;;;12.70;;
70049;SDS011;57391;51.306;22.680;2022-10-17T15:01:51;22.10;;;12.10;;
70049;SDS011;57391;51.306;22.680;2022-10-17T15:04:18;19.10;;;11.90;;
70049;SDS011;57391;51.306;22.680;2022-10-17T15:06:52;16.90;;;10.30;;
70049;SDS011;57391;51.306;22.680;2022-10-17T15:09:21;20.00;;;11.20;;
70049;SDS011;57391;51.306;22.680;2022-10-17T15:11:49;18.10;;;10.50;;
70049;SDS011;57391;51.306;22.680;2022-10-17T15:14:17;18.70;;;11.20;;
70049;SDS011;57391;51.306;22.680;2022-10-17T15:16:44;21.50;;;13.30;;
70049;SDS011;57391;51.306;22.680;2022-10-17T15:19:13;24.80;;;12.80;;
70049;SDS011;57391;51.306;22.680;2022-10-17T15:21:40;22.30;;;12.30;;
70049;SDS011;57391;51.306;22.680;2022-10-17T15:24:07;21.20;;;13.10;;
70049;SDS011;57391;51.306;22.680;2022-10-17T15:26:35;20.40;;;11.80;;
70049;SDS011;57391;51.306;22.680;2022-10-17T15:29:03;20.40;;;11.90;;
70049;SDS011;57391;51.306;22.680;2022-10-17T15:31:31;18.80;;;10.90;;
70049;SDS011;57391;51.306;22.680;2022-10-17T15:33:59;18.60;;;11.20;;
70049;SDS011;57391;51.306;22.680;2022-10-17T15:36:28;26.40;;;15.90;;
70049;SDS011;57391;51.306;22.680;2022-10-17T15:39:00;32.70;;;20.20;;
70049;SDS011;57391;51.306;22.680;2022-10-17T15:41:29;29.40;;;17.60;;
70049;SDS011;57391;51.306;22.680;2022-10-17T15:43:58;31.90;;;19.90;;
70049;SDS011;57391;51.306;22.680;2022-10-17T15:46:27;55.60;;;30.50;;
70049;SDS011;57391;51.306;22.680;2022-10-17T15:49:04;80.40;;;38.30;;
70049;SDS011;57391;51.306;22.680;2022-10-17T15:51:35;228.50;;;97.80;;
70049;SDS011;57391;51.306;22.680;2022-10-17T15:54:03;190.50;;;81.90;;
70049;SDS011;57391;51.306;22.680;2022-10-17T15:56:37;115.10;;;49.80;;
70049;SDS011;57391;51.306;22.680;2022-10-17T15:59:11;65.40;;;31.90;;
70049;SDS011;57391;51.306;22.680;2022-10-17T16:01:41;38.80;;;21.90;;
70049;SDS011;57391;51.306;22.680;2022-10-17T16:04:10;41.10;;;20.80;;
70049;SDS011;57391;51.306;22.680;2022-10-17T16:06:41;35.50;;;20.40;;
70049;SDS011;57391;51.306;22.680;2022-10-17T16:09:09;36.50;;;19.80;;
70049;SDS011;57391;51.306;22.680;2022-10-17T16:11:39;43.60;;;21.70;;
70049;SDS011;57391;51.306;22.680;2022-10-17T16:14:15;41.60;;;23.60;;
70049;SDS011;57391;51.306;22.680;2022-10-17T16:16:43;41.30;;;23.70;;
70049;SDS011;57391;51.306;22.680;2022-10-17T16:19:11;45.30;;;24.30;;
70049;SDS011;57391;51.306;22.680;2022-10-17T16:21:39;44.60;;;24.90;;
70049;SDS011;57391;51.306;22.680;2022-10-17T16:24:11;45.10;;;24.70;;
70049;SDS011;57391;51.306;22.680;2022-10-17T16:26:39;37.00;;;20.90;;
70049;SDS011;57391;51.306;22.680;2022-10-17T16:29:06;36.90;;;20.20;;
70049;SDS011;57391;51.306;22.680;2022-10-17T16:31:40;37.90;;;21.60;;
70049;SDS011;57391;51.306;22.680;2022-10-17T16:34:11;36.00;;;21.10;;
70049;SDS011;57391;51.306;22.680;2022-10-17T16:36:40;37.50;;;22.40;;
70049;SDS011;57391;51.306;22.680;2022-10-17T16:39:08;44.70;;;25.90;;
70049;SDS011;57391;51.306;22.680;2022-10-17T16:41:37;41.00;;;25.80;;
70049;SDS011;57391;51.306;22.680;2022-10-17T16:44:06;46.90;;;27.50;;
70049;SDS011;57391;51.306;22.680;2022-10-17T16:46:36;49.80;;;27.00;;
70049;SDS011;57391;51.306;22.680;2022-10-17T16:49:04;45.00;;;26.20;;
70049;SDS011;57391;51.306;22.680;2022-10-17T16:51:32;47.90;;;26.30;;
70049;SDS011;57391;51.306;22.680;2022-10-17T16:54:02;44.90;;;24.90;;
70049;SDS011;57391;51.306;22.680;2022-10-17T16:56:30;44.10;;;23.80;;